Time;durP1;ratioP1;P1;durP2;ratioP2;P2;SDS_P1;SDS_P2;PMS_P1;PMS_P2;Temp;Humidity;BMP_temperature;BMP_pressure;BME280_temperature;BME280_humidity;BME280_pressure;Samples;Min_cycle;Max_cycle;Signal;HPM_P1;HPM_P2
2022/12/09 00:00:18;;;;;;;;;44.75;37.75;;;;;7.67;64.90;100109.97;2092594;28;45934;-65
2022/12/09 00:01:21;;;;;;;;;43.50;36.25;;;;;7.69;64.76;100116.06;2095453;28;46277;-64
2022/12/09 00:02:21;;;;;;;;;49.40;39.40;;;;;7.67;64.64;100118.75;2093634;28;46915;-66
2022/12/09 00:03:22;;;;;;;;;36.75;33.50;;;;;7.68;64.44;100114.34;2096031;28;46619;-64
2022/12/09 00:04:23;;;;;;;;;43.50;35.75;;;;;7.67;64.70;100121.41;2094218;28;45955;-66
2022/12/09 00:05:23;;;;;;;;;49.75;40.00;;;;;7.67;64.81;100116.13;2095997;28;46387;-68
2022/12/09 00:06:26;;;;;;;;;42.50;35.75;;;;;7.68;64.75;100116.97;2095211;28;45742;-65
2022/12/09 00:07:27;;;;;;;;;46.00;37.20;;;;;7.69;64.81;100116.06;2094992;28;45939;-64
2022/12/09 00:08:27;;;;;;;;;49.00;37.75;;;;;7.70;64.82;100112.53;2096225;27;46795;-66
2022/12/09 00:09:27;;;;;;;;;41.50;36.00;;;;;7.70;64.64;100107.25;2094594;28;46519;-63
2022/12/09 00:10:28;;;;;;;;;49.00;41.25;;;;;7.72;64.72;100109.84;2094709;28;46257;-65
2022/12/09 00:11:28;;;;;;;;;47.00;40.25;;;;;7.72;64.77;100107.22;2094904;28;46809;-63
2022/12/09 00:12:28;;;;;;;;;49.25;40.00;;;;;7.72;64.89;100105.44;2093640;28;46915;-66
2022/12/09 00:13:29;;;;;;;;;40.75;34.75;;;;;7.73;64.67;100104.53;2095065;28;46640;-65
2022/12/09 00:14:29;;;;;;;;;35.50;31.00;;;;;7.74;64.85;100110.69;2094813;28;46284;-65
2022/12/09 00:15:29;;;;;;;;;41.00;37.75;;;;;7.73;64.67;100104.53;2094746;28;46367;-65
2022/12/09 00:16:29;;;;;;;;;41.25;36.50;;;;;7.73;64.72;100101.03;2094794;28;46416;-66
2022/12/09 00:17:30;;;;;;;;;40.00;34.50;;;;;7.72;64.75;100102.81;2093492;28;45907;-66
2022/12/09 00:18:30;;;;;;;;;38.50;34.00;;;;;7.71;65.09;100102.84;2095241;28;46819;-64
2022/12/09 00:19:30;;;;;;;;;38.75;36.00;;;;;7.71;64.85;100101.06;2094808;28;46119;-62
2022/12/09 00:20:31;;;;;;;;;36.00;33.25;;;;;7.71;64.78;100100.19;2095057;28;46648;-63
2022/12/09 00:21:32;;;;;;;;;42.25;38.00;;;;;7.69;65.03;100100.22;2092716;28;46556;-63
2022/12/09 00:22:32;;;;;;;;;34.80;33.20;;;;;7.70;64.94;100101.09;2095301;28;46781;-64
2022/12/09 00:23:33;;;;;;;;;43.00;37.00;;;;;7.67;64.98;100105.56;2094639;28;46231;-64
2022/12/09 00:24:33;;;;;;;;;47.25;37.25;;;;;7.67;65.21;100100.25;2095236;28;46851;-65
2022/12/09 00:25:33;;;;;;;;;47.50;37.75;;;;;7.67;64.97;100104.69;2093000;28;46286;-64
2022/12/09 00:26:33;;;;;;;;;48.75;39.75;;;;;7.67;65.12;100105.56;2096443;28;46287;-64
2022/12/09 00:27:34;;;;;;;;;47.25;39.50;;;;;7.66;65.22;100101.16;2094434;28;46549;-64
2022/12/09 00:28:34;;;;;;;;;48.00;37.50;;;;;7.65;64.84;100102.06;2096338;28;46493;-64
2022/12/09 00:29:35;;;;;;;;;48.50;39.50;;;;;7.66;65.08;100092.38;2094023;28;46322;-64
2022/12/09 00:30:35;;;;;;;;;45.00;38.25;;;;;7.66;65.35;100097.66;2094403;28;46780;-64
2022/12/09 00:31:36;;;;;;;;;44.25;38.00;;;;;7.66;65.17;100098.53;2094929;28;46617;-65
2022/12/09 00:32:37;;;;;;;;;51.20;40.60;;;;;7.66;65.17;100093.25;2095559;28;46485;-63
2022/12/09 00:33:37;;;;;;;;;47.25;36.75;;;;;7.67;65.16;100094.13;2094673;28;46939;-67
2022/12/09 00:34:37;;;;;;;;;38.25;34.00;;;;;7.67;65.21;100094.13;2096312;28;46879;-63
2022/12/09 00:35:38;;;;;;;;;46.25;38.25;;;;;7.67;65.11;100092.34;2094090;28;47010;-66
2022/12/09 00:36:39;;;;;;;;;43.25;38.75;;;;;7.67;64.84;100096.75;2095216;28;46529;-65
2022/12/09 00:37:39;;;;;;;;;41.25;37.25;;;;;7.67;65.20;100092.34;2094478;28;45071;-64
2022/12/09 00:38:40;;;;;;;;;39.25;33.00;;;;;7.66;65.25;100090.59;2095164;28;46785;-64
2022/12/09 00:39:40;;;;;;;;;46.40;38.80;;;;;7.66;65.21;100089.75;2093739;28;46491;-65
2022/12/09 00:40:41;;;;;;;;;48.25;37.25;;;;;7.66;65.16;100095.88;2097129;28;46185;-65
2022/12/09 00:41:41;;;;;;;;;48.25;39.75;;;;;7.63;65.38;100082.75;2094288;28;45966;-65
2022/12/09 00:42:41;;;;;;;;;45.25;38.00;;;;;7.66;65.20;100089.75;2098013;27;46468;-66
2022/12/09 00:43:43;;;;;;;;;47.75;40.25;;;;;7.66;65.28;100087.97;2094153;28;46456;-67
2022/12/09 00:44:43;;;;;;;;;47.40;36.40;;;;;7.67;65.35;100088.84;2095646;28;46939;-67
2022/12/09 00:45:43;;;;;;;;;51.75;40.25;;;;;7.66;65.25;100090.59;2094333;28;46630;-66
2022/12/09 00:46:44;;;;;;;;;53.25;42.00;;;;;7.66;65.32;100090.59;2096806;27;46482;-63
2022/12/09 00:47:44;;;;;;;;;51.75;43.00;;;;;7.65;65.17;100093.28;2093706;28;46211;-66
2022/12/09 00:48:45;;;;;;;;;42.00;35.75;;;;;7.65;65.41;100082.72;2085809;28;46310;-64
2022/12/09 00:49:46;;;;;;;;;46.80;39.60;;;;;7.64;65.20;100081.84;2082829;28;46481;-67
2022/12/09 00:50:46;;;;;;;;;42.75;37.50;;;;;7.64;65.24;100086.25;2095513;28;47018;-67
2022/12/09 00:51:47;;;;;;;;;44.00;38.50;;;;;7.64;65.16;100088.91;2094653;28;46519;-65
2022/12/09 00:52:47;;;;;;;;;52.50;42.75;;;;;7.63;65.24;100087.16;2095696;28;46764;-66
2022/12/09 00:53:52;;;;;;;;;46.50;38.50;;;;;7.62;65.35;100088.94;2094385;28;46258;-65
2022/12/09 00:54:52;;;;;;;;;49.60;41.00;;;;;7.60;65.24;100080.16;2086105;28;46315;-65
2022/12/09 00:55:52;;;;;;;;;48.50;39.50;;;;;7.59;65.19;100086.34;2087699;28;46783;-66
2022/12/09 00:56:53;;;;;;;;;43.25;39.25;;;;;7.59;65.29;100088.09;2095083;28;46391;-66
2022/12/09 00:57:53;;;;;;;;;42.00;38.00;;;;;7.58;65.40;100078.44;2093824;28;46272;-66
2022/12/09 00:58:55;;;;;;;;;35.25;28.25;;;;;7.58;65.47;100087.22;2097503;28;45142;-67
2022/12/09 00:59:55;;;;;;;;;53.00;43.40;;;;;7.56;65.50;100077.59;2094319;28;46949;-66
2022/12/09 01:00:55;;;;;;;;;46.50;37.00;;;;;7.54;65.32;100075.00;2095196;28;46442;-66
2022/12/09 01:01:56;;;;;;;;;41.25;36.00;;;;;7.52;65.65;100071.53;2094720;28;46116;-66
2022/12/09 01:02:56;;;;;;;;;42.75;35.00;;;;;7.51;65.58;100076.84;2091777;28;46398;-66
2022/12/09 01:03:57;;;;;;;;;48.50;37.75;;;;;7.50;65.57;100075.97;2093261;28;46883;-65
2022/12/09 01:04:57;;;;;;;;;44.25;36.50;;;;;7.50;65.59;100080.38;2095639;28;46097;-67
2022/12/09 01:05:57;;;;;;;;;51.50;39.75;;;;;7.48;65.71;100074.25;2094007;28;46754;-65
2022/12/09 01:06:58;;;;;;;;;49.25;40.25;;;;;7.48;65.71;100071.59;2095413;28;46704;-66
2022/12/09 01:07:58;;;;;;;;;50.50;40.25;;;;;7.48;65.82;100066.31;2094360;28;46654;-67
2022/12/09 01:08:58;;;;;;;;;35.50;30.75;;;;;7.48;65.64;100068.97;2095396;28;46968;-66
2022/12/09 01:09:59;;;;;;;;;44.00;39.00;;;;;7.47;65.65;100069.84;2096816;28;46277;-67
2022/12/09 01:10:59;;;;;;;;;41.50;36.50;;;;;7.47;65.17;100075.13;2095822;27;46238;-66
2022/12/09 01:11:59;;;;;;;;;44.00;38.75;;;;;7.46;65.66;100069.00;2094359;28;46278;-66
2022/12/09 01:13:00;;;;;;;;;46.50;37.50;;;;;7.46;65.72;100070.75;2096110;28;46628;-66
2022/12/09 01:14:01;;;;;;;;;45.75;37.50;;;;;7.47;65.63;100077.78;2095327;28;46556;-66
2022/12/09 01:15:02;;;;;;;;;45.20;37.20;;;;;7.46;65.81;100079.56;2095065;28;46559;-68
2022/12/09 01:16:02;;;;;;;;;45.50;38.25;;;;;7.45;65.60;100074.31;2093514;28;46443;-67
2022/12/09 01:17:03;;;;;;;;;50.75;40.50;;;;;7.42;65.74;100072.59;2095082;28;46624;-67
2022/12/09 01:18:04;;;;;;;;;47.75;36.50;;;;;7.41;65.64;100073.50;2093788;28;46726;-66
2022/12/09 01:19:07;;;;;;;;;49.00;39.00;;;;;7.41;65.38;100073.50;2095761;28;47101;-67
2022/12/09 01:20:08;;;;;;;;;44.00;38.00;;;;;7.38;65.70;100074.44;2093834;28;45566;-64
2022/12/09 01:21:09;;;;;;;;;40.25;37.00;;;;;7.36;65.56;100073.56;2095647;28;45762;-64
2022/12/09 01:22:09;;;;;;;;;45.50;40.00;;;;;7.36;65.68;100072.69;2091781;28;46335;-63
2022/12/09 01:23:09;;;;;;;;;46.50;38.00;;;;;7.34;65.62;100070.09;2095481;28;46645;-64
2022/12/09 01:24:10;;;;;;;;;41.25;37.50;;;;;7.32;65.37;100076.31;2093487;28;46314;-64
2022/12/09 01:25:11;;;;;;;;;44.00;39.20;;;;;7.31;65.58;100066.66;2095451;28;46930;-65
2022/12/09 01:26:12;;;;;;;;;41.50;32.00;;;;;7.30;65.59;100070.19;2095622;28;46259;-64
2022/12/09 01:27:12;;;;;;;;;51.00;41.00;;;;;7.29;65.72;100064.03;2095299;28;46269;-65
2022/12/09 01:28:12;;;;;;;;;36.75;33.25;;;;;7.28;65.77;100070.22;2093656;28;46458;-68
2022/12/09 01:29:13;;;;;;;;;44.75;37.00;;;;;7.28;65.77;100075.50;2095858;28;45037;-66
2022/12/09 01:30:14;;;;;;;;;46.75;37.25;;;;;7.28;65.87;100074.63;2094741;28;46815;-66
2022/12/09 01:31:17;;;;;;;;;45.50;38.75;;;;;7.27;65.79;100064.97;2095330;28;46234;-64
2022/12/09 01:32:17;;;;;;;;;46.60;40.00;;;;;7.27;65.65;100067.63;2093425;28;46933;-64
2022/12/09 01:33:17;;;;;;;;;46.25;38.00;;;;;7.26;65.69;100068.50;2095359;28;46938;-64
2022/12/09 01:34:17;;;;;;;;;47.75;38.25;;;;;7.25;65.65;100070.28;2093802;28;45676;-67
2022/12/09 01:35:18;;;;;;;;;45.00;39.25;;;;;7.25;65.57;100070.28;2094767;28;47407;-64
2022/12/09 01:36:22;;;;;;;;;42.50;37.50;;;;;7.24;65.50;100071.19;2093475;28;46780;-63
2022/12/09 01:37:22;;;;;;;;;49.60;41.60;;;;;7.23;65.85;100064.13;2095551;28;45902;-65
2022/12/09 01:38:23;;;;;;;;;39.75;37.00;;;;;7.21;65.75;100065.94;2087862;28;46644;-64
2022/12/09 01:39:23;;;;;;;;;40.00;37.00;;;;;7.21;65.60;100068.59;2087889;28;46989;-64
2022/12/09 01:40:24;;;;;;;;;50.25;42.00;;;;;7.22;65.71;100072.97;2094837;28;46386;-64
2022/12/09 01:41:25;;;;;;;;;40.50;36.25;;;;;7.22;65.69;100072.97;2094910;28;46242;-66
2022/12/09 01:42:26;;;;;;;;;44.00;36.80;;;;;7.23;65.79;100074.69;2095233;28;46997;-66
2022/12/09 01:43:27;;;;;;;;;40.20;36.40;;;;;7.22;65.85;100074.72;2094509;28;46360;-65
2022/12/09 01:44:31;;;;;;;;;42.40;37.00;;;;;7.22;65.74;100078.22;2094373;28;46181;-65
2022/12/09 01:45:38;;;;;;;;;46.00;36.80;;;;;7.22;65.89;100069.44;2094043;28;46947;-64
2022/12/09 01:46:39;;;;;;;;;43.00;35.60;;;;;7.21;65.90;100071.22;2102470;28;46450;-66
2022/12/09 01:47:39;;;;;;;;;42.20;35.60;;;;;7.21;65.49;100079.13;2099176;27;46256;-63
2022/12/09 01:48:43;;;;;;;;;47.00;39.25;;;;;7.20;65.68;100071.25;2095163;28;46056;-62
2022/12/09 01:49:46;;;;;;;;;41.40;37.00;;;;;7.18;65.67;100068.66;2094245;28;46821;-63
2022/12/09 01:50:55;;;;;;;;;39.80;33.40;;;;;7.18;65.58;100071.28;2094743;28;47022;-65
2022/12/09 01:52:04;;;;;;;;;44.60;38.20;;;;;7.17;65.68;100071.31;2091511;28;46798;-65
2022/12/09 01:53:05;;;;;;;;;41.60;35.60;;;;;7.17;65.73;100073.94;2095075;28;46378;-65
2022/12/09 01:54:07;;;;;;;;;45.60;38.60;;;;;7.16;65.98;100065.16;2095188;28;46486;-65
2022/12/09 01:55:08;;;;;;;;;44.20;37.80;;;;;7.16;65.73;100073.09;2095494;28;46759;-64
2022/12/09 01:56:18;;;;;;;;;44.00;37.40;;;;;7.16;65.76;100074.84;2093875;28;46045;-67
2022/12/09 01:57:19;;;;;;;;;46.00;37.80;;;;;7.15;65.68;100079.25;2095153;28;46547;-63
2022/12/09 01:58:19;;;;;;;;;37.75;32.25;;;;;7.15;65.75;100078.41;2092814;28;46901;-65
2022/12/09 01:59:21;;;;;;;;;44.25;38.50;;;;;7.14;65.87;100074.88;2095559;28;46683;-65
2022/12/09 02:00:22;;;;;;;;;52.40;41.00;;;;;7.14;65.70;100076.66;2093683;28;46312;-66
2022/12/09 02:01:22;;;;;;;;;42.25;37.00;;;;;7.14;65.97;100074.88;2096892;28;46690;-65
2022/12/09 02:02:27;;;;;;;;;43.25;36.50;;;;;7.15;66.16;100081.03;2094915;28;45624;-66
2022/12/09 02:03:27;;;;;;;;;50.60;41.00;;;;;7.14;66.02;100074.88;2094426;28;46345;-66
2022/12/09 02:04:33;;;;;;;;;44.25;37.00;;;;;7.13;65.91;100078.44;2097452;28;47258;-64
2022/12/09 02:05:34;;;;;;;;;43.20;37.00;;;;;7.13;65.68;100069.63;2095516;28;45817;-65
2022/12/09 02:06:36;;;;;;;;;46.40;40.00;;;;;7.12;65.86;100070.53;2096343;28;46519;-65
2022/12/09 02:07:36;;;;;;;;;44.40;37.20;;;;;7.11;65.83;100071.41;2095365;28;45837;-66
2022/12/09 02:08:37;;;;;;;;;45.50;38.00;;;;;7.10;65.91;100070.53;2087434;28;46739;-64
2022/12/09 02:09:38;;;;;;;;;42.25;37.00;;;;;7.11;65.91;100071.41;2078420;28;46907;-65
2022/12/09 02:10:49;;;;;;;;;44.80;38.40;;;;;7.10;66.19;100067.91;2096849;28;46913;-66
2022/12/09 02:12:03;;;;;;;;;44.00;40.00;;;;;7.11;66.03;100080.19;2094082;28;46824;-66
2022/12/09 02:13:20;;;;;;;;;45.80;38.40;;;;;7.10;65.87;100067.91;2096294;28;46734;-65
2022/12/09 02:14:44;;;;;;;;;45.60;38.20;;;;;7.10;65.70;100073.19;2097364;28;46541;-67
2022/12/09 02:15:52;;;;;;;;;43.80;38.80;;;;;7.08;66.07;100075.84;2093874;28;45607;-67
2022/12/09 02:17:24;;;;;;;;;53.00;43.00;;;;;7.06;65.95;100069.72;2096124;28;46445;-65
2022/12/09 02:18:39;;;;;;;;;51.20;40.60;;;;;7.05;65.93;100064.50;2095708;28;45931;-66
2022/12/09 02:20:00;;;;;;;;;43.80;36.00;;;;;7.04;65.99;100065.38;2095260;28;46775;-64
2022/12/09 02:21:19;;;;;;;;;39.20;34.60;;;;;7.02;66.04;100062.78;2096480;28;46981;-65
2022/12/09 02:22:25;;;;;;;;;45.20;38.00;;;;;7.01;66.03;100065.44;2070367;28;46453;-68
2022/12/09 02:23:39;;;;;;;;;46.80;40.80;;;;;7.00;66.04;100069.84;2077786;28;46482;-65
2022/12/09 02:24:57;;;;;;;;;53.00;41.80;;;;;6.99;66.09;100059.34;2096503;28;46362;-64
2022/12/09 02:26:16;;;;;;;;;46.60;37.60;;;;;6.97;66.28;100063.75;2093446;28;46451;-65
2022/12/09 02:27:22;;;;;;;;;44.80;38.20;;;;;6.94;66.23;100056.75;2093765;28;46778;-63
2022/12/09 02:28:28;;;;;;;;;45.20;37.60;;;;;6.94;66.06;100058.53;2094200;28;46735;-63
2022/12/09 02:29:43;;;;;;;;;47.20;37.60;;;;;6.92;66.19;100058.56;2094842;28;45257;-66
2022/12/09 02:30:52;;;;;;;;;48.40;38.40;;;;;6.92;66.08;100049.78;2097148;28;45199;-65
2022/12/09 02:31:55;;;;;;;;;48.80;40.80;;;;;6.91;66.14;100051.53;2094534;28;46762;-64
2022/12/09 02:33:11;;;;;;;;;49.20;39.20;;;;;6.90;66.28;100056.84;2096671;28;45771;-65
2022/12/09 02:34:21;;;;;;;;;49.60;39.80;;;;;6.90;66.24;100056.84;2093627;28;46434;-65
2022/12/09 02:35:28;;;;;;;;;45.60;37.40;;;;;6.90;66.33;100056.84;2096637;28;46384;-63
2022/12/09 02:36:35;;;;;;;;;48.20;39.00;;;;;6.89;66.36;100057.75;2094258;28;47028;-67
2022/12/09 02:37:47;;;;;;;;;48.00;37.40;;;;;6.90;66.17;100056.84;2095131;28;46279;-67
2022/12/09 02:38:51;;;;;;;;;49.00;40.40;;;;;6.89;66.23;100050.69;2095784;28;46408;-63
2022/12/09 02:39:56;;;;;;;;;47.40;41.00;;;;;6.89;66.49;100052.47;2095197;28;46121;-64
2022/12/09 02:41:10;;;;;;;;;51.80;39.80;;;;;6.87;66.35;100049.88;2095016;28;46818;-65
2022/12/09 02:42:15;;;;;;;;;50.40;39.00;;;;;6.87;66.23;100049.00;2093978;28;46721;-67
2022/12/09 02:43:21;;;;;;;;;45.40;37.40;;;;;6.86;66.03;100048.13;2093485;28;46544;-65
2022/12/09 02:44:23;;;;;;;;;44.00;35.20;;;;;6.87;66.12;100051.63;2093682;28;46859;-65
2022/12/09 02:45:28;;;;;;;;;37.40;35.00;;;;;6.85;66.23;100049.00;2096520;28;46661;-64
2022/12/09 02:46:32;;;;;;;;;38.80;35.20;;;;;6.85;66.17;100049.00;2095902;28;46340;-66
2022/12/09 02:47:37;;;;;;;;;46.00;36.80;;;;;6.85;66.02;100050.75;2095163;28;46803;-66
2022/12/09 02:48:45;;;;;;;;;44.40;37.20;;;;;6.83;66.12;100052.56;2096300;28;46793;-65
2022/12/09 02:49:51;;;;;;;;;43.40;37.80;;;;;6.80;65.94;100048.22;2094244;28;46538;-65
2022/12/09 02:50:52;;;;;;;;;44.00;37.00;;;;;6.78;66.16;100048.25;2096167;28;46686;-65
2022/12/09 02:51:54;;;;;;;;;45.00;36.60;;;;;6.77;65.96;100043.88;2096586;28;46973;-66
2022/12/09 02:52:58;;;;;;;;;42.40;35.20;;;;;6.76;65.93;100047.41;2105056;27;46323;-66
2022/12/09 02:54:06;;;;;;;;;36.20;32.40;;;;;6.74;65.91;100049.19;2102270;27;45688;-64
2022/12/09 02:55:09;;;;;;;;;40.20;36.00;;;;;6.73;65.74;100043.94;2096494;28;46830;-66
2022/12/09 02:56:13;;;;;;;;;42.40;35.00;;;;;6.70;66.12;100050.13;2094355;28;46597;-65
2022/12/09 02:57:18;;;;;;;;;37.40;36.00;;;;;6.68;65.97;100044.00;2096044;28;46723;-65
2022/12/09 02:58:18;;;;;;;;;40.40;35.40;;;;;6.66;65.63;100047.56;2096362;28;46519;-67
2022/12/09 02:59:18;;;;;;;;;41.00;32.00;;;;;6.64;65.95;100041.47;2096704;28;45809;-64
2022/12/09 03:00:20;;;;;;;;;39.50;35.00;;;;;6.61;65.83;100045.03;2094884;28;45182;-64
2022/12/09 03:01:24;;;;;;;;;38.60;34.40;;;;;6.60;65.44;100047.66;2096373;28;46721;-66
2022/12/09 03:02:28;;;;;;;;;38.00;30.40;;;;;6.60;66.06;100045.03;2095204;28;46990;-65
2022/12/09 03:03:32;;;;;;;;;34.00;33.60;;;;;6.60;66.00;100045.91;2095678;28;47145;-64
2022/12/09 03:04:33;;;;;;;;;35.60;31.00;;;;;6.60;65.76;100039.75;2102297;28;46596;-65
2022/12/09 03:05:44;;;;;;;;;36.25;31.25;;;;;6.60;65.90;100048.53;2101069;27;46488;-66
2022/12/09 03:06:50;;;;;;;;;46.80;34.80;;;;;6.59;66.12;100044.16;2094474;28;46827;-64
2022/12/09 03:08:19;;;;;;;;;33.80;31.40;;;;;6.58;65.85;100046.81;2094803;28;46725;-65
2022/12/09 03:09:33;;;;;;;;;37.40;29.80;;;;;6.56;65.86;100044.22;2095674;28;46378;-65
2022/12/09 03:10:51;;;;;;;;;32.60;29.40;;;;;6.57;66.14;100039.81;2096353;28;46768;-65
2022/12/09 03:11:54;;;;;;;;;30.20;28.40;;;;;6.56;66.07;100041.56;2094672;28;46469;-66
2022/12/09 03:13:13;;;;;;;;;32.20;31.00;;;;;6.55;66.07;100042.47;2096336;28;46618;-64
2022/12/09 03:14:26;;;;;;;;;33.60;31.20;;;;;6.56;65.71;100044.22;2097782;28;46540;-63
2022/12/09 03:15:32;;;;;;;;;28.00;25.60;;;;;6.54;65.76;100043.38;2095219;28;46664;-64
2022/12/09 03:16:36;;;;;;;;;36.60;31.80;;;;;6.54;65.93;100037.22;2094914;28;47083;-65
2022/12/09 03:17:42;;;;;;;;;36.20;32.40;;;;;6.54;65.88;100038.09;2094077;28;46688;-64
2022/12/09 03:18:49;;;;;;;;;35.80;30.60;;;;;6.54;65.93;100037.22;2094457;28;46978;-66
2022/12/09 03:19:56;;;;;;;;;37.80;33.00;;;;;6.54;66.01;100038.09;2095157;28;46914;-63
2022/12/09 03:20:57;;;;;;;;;34.80;31.40;;;;;6.55;65.89;100036.34;2096311;28;48231;-66
2022/12/09 03:22:01;;;;;;;;;41.00;36.00;;;;;6.55;66.01;100031.94;2094346;28;46853;-68
2022/12/09 03:23:04;;;;;;;;;32.20;27.80;;;;;6.55;66.01;100031.94;2095877;28;46766;-65
2022/12/09 03:24:08;;;;;;;;;35.60;30.00;;;;;6.56;65.37;100035.44;2093446;28;48679;-65
2022/12/09 03:25:12;;;;;;;;;35.00;32.60;;;;;6.55;65.98;100031.94;2096269;28;46670;-66
2022/12/09 03:26:15;;;;;;;;;29.80;28.40;;;;;6.54;65.74;100035.47;2095542;28;46928;-66
2022/12/09 03:27:22;;;;;;;;;29.60;28.60;;;;;6.56;66.01;100032.81;2096132;28;46544;-65
2022/12/09 03:28:33;;;;;;;;;34.40;30.80;;;;;6.55;65.77;100026.66;2093666;28;46325;-66
2022/12/09 03:29:38;;;;;;;;;33.80;31.40;;;;;6.56;65.87;100035.44;2094830;28;46335;-65
2022/12/09 03:30:42;;;;;;;;;32.60;31.80;;;;;6.54;65.72;100035.47;2097128;28;46363;-66
2022/12/09 03:31:44;;;;;;;;;25.20;24.40;;;;;6.54;65.72;100034.59;2094018;28;46741;-64
2022/12/09 03:32:45;;;;;;;;;37.40;32.60;;;;;6.53;65.82;100024.94;2096313;28;47016;-63
2022/12/09 03:33:51;;;;;;;;;33.80;28.80;;;;;6.51;65.59;100032.88;2094427;28;46891;-66
2022/12/09 03:35:00;;;;;;;;;34.00;32.40;;;;;6.51;65.85;100030.25;2096300;28;46388;-67
2022/12/09 03:36:05;;;;;;;;;32.80;31.80;;;;;6.50;65.59;100025.88;2094787;28;46400;-64
2022/12/09 03:37:08;;;;;;;;;39.00;31.00;;;;;6.50;65.54;100020.59;2096035;28;46254;-65
2022/12/09 03:38:12;;;;;;;;;36.00;31.40;;;;;6.50;65.73;100025.88;2094185;28;46635;-64
2022/12/09 03:39:15;;;;;;;;;31.80;29.00;;;;;6.51;65.63;100026.75;2096546;28;45733;-64
2022/12/09 03:40:22;;;;;;;;;32.80;27.40;;;;;6.47;65.56;100021.50;2095279;28;47276;-65
2022/12/09 03:41:26;;;;;;;;;32.60;30.20;;;;;6.47;65.54;100026.78;2096305;28;46615;-64
2022/12/09 03:42:36;;;;;;;;;35.40;30.40;;;;;6.46;65.55;100027.66;2095160;28;46863;-65
2022/12/09 03:43:41;;;;;;;;;30.80;28.80;;;;;6.46;65.73;100024.16;2094783;28;46848;-63
2022/12/09 03:44:54;;;;;;;;;31.60;29.80;;;;;6.46;65.81;100026.78;2095809;28;46604;-63
2022/12/09 03:45:56;;;;;;;;;31.20;29.20;;;;;6.44;65.60;100016.28;2093945;28;46936;-65
2022/12/09 03:46:57;;;;;;;;;33.60;27.60;;;;;6.46;65.65;100021.53;2094730;28;46500;-64
2022/12/09 03:47:58;;;;;;;;;36.25;31.75;;;;;6.47;65.62;100018.00;2093417;28;46454;-64
2022/12/09 03:48:58;;;;;;;;;31.50;29.00;;;;;6.47;65.61;100023.25;2095934;28;46705;-64
2022/12/09 03:49:58;;;;;;;;;31.25;29.00;;;;;6.48;65.60;100022.41;2094030;28;46600;-64
2022/12/09 03:51:14;;;;;;;;;31.50;29.75;;;;;6.47;65.62;100026.78;2095399;28;46814;-61
2022/12/09 03:52:27;;;;;;;;;36.60;31.20;;;;;6.47;65.83;100018.88;2094712;28;46556;-65
2022/12/09 03:53:43;;;;;;;;;31.60;28.80;;;;;6.47;65.61;100012.72;2095149;28;46337;-62
2022/12/09 03:54:47;;;;;;;;;33.00;33.00;;;;;6.47;65.49;100018.00;2094345;28;46917;-65
2022/12/09 03:55:52;;;;;;;;;33.80;28.00;;;;;6.49;65.66;100018.88;2094906;28;46343;-63
2022/12/09 03:56:55;;;;;;;;;35.20;31.80;;;;;6.48;65.47;100015.38;2094533;28;47014;-63
2022/12/09 03:57:58;;;;;;;;;38.40;32.40;;;;;6.47;65.43;100013.59;2093206;28;46494;-67
2022/12/09 03:59:02;;;;;;;;;34.80;32.20;;;;;6.48;65.53;100011.84;2096109;28;46616;-63
2022/12/09 04:00:04;;;;;;;;;34.60;33.40;;;;;6.48;65.40;100015.38;2093084;28;46689;-65
2022/12/09 04:01:05;;;;;;;;;34.40;32.00;;;;;6.49;65.55;100010.97;2095353;28;46585;-63
2022/12/09 04:02:06;;;;;;;;;34.40;31.20;;;;;6.49;65.31;100009.19;2092911;28;46887;-66
2022/12/09 04:03:07;;;;;;;;;37.00;35.00;;;;;6.49;65.31;100003.06;2095804;28;46788;-67
2022/12/09 04:04:07;;;;;;;;;28.80;26.60;;;;;6.49;65.48;100010.97;2087946;28;46684;-64
2022/12/09 04:05:08;;;;;;;;;32.75;24.75;;;;;6.49;65.48;100008.31;2104170;28;45598;-64
2022/12/09 04:06:08;;;;;;;;;37.50;32.25;;;;;6.49;65.16;100005.69;2092124;28;46581;-66
2022/12/09 04:07:09;;;;;;;;;33.00;30.75;;;;;6.51;65.68;100014.44;2094514;28;46654;-65
2022/12/09 04:08:10;;;;;;;;;41.25;34.25;;;;;6.51;65.14;100010.94;2094148;28;46834;-66
2022/12/09 04:09:11;;;;;;;;;34.25;27.50;;;;;6.52;65.56;100010.03;2096422;28;46272;-65
2022/12/09 04:10:11;;;;;;;;;32.80;30.20;;;;;6.53;65.07;100014.41;2094940;28;46763;-65
2022/12/09 04:11:12;;;;;;;;;27.25;25.75;;;;;6.51;65.36;100014.44;2096171;28;46190;-63
2022/12/09 04:12:12;;;;;;;;;36.00;32.00;;;;;6.51;64.98;100011.81;2092586;28;46302;-65
2022/12/09 04:13:12;;;;;;;;;34.75;31.00;;;;;6.51;65.14;100010.94;2096114;28;46764;-65
2022/12/09 04:14:13;;;;;;;;;30.00;26.50;;;;;6.48;65.29;100010.09;2084630;28;46460;-63
2022/12/09 04:15:13;;;;;;;;;35.75;31.00;;;;;6.49;65.15;100010.97;2093086;28;46962;-63
2022/12/09 04:16:13;;;;;;;;;33.00;30.25;;;;;6.48;65.21;100012.72;2093776;28;46360;-67
2022/12/09 04:17:13;;;;;;;;;33.00;28.00;;;;;6.46;65.17;100006.59;2096234;28;46621;-65
2022/12/09 04:18:14;;;;;;;;;32.00;31.00;;;;;6.47;65.30;100004.81;2095234;28;46285;-65
2022/12/09 04:19:14;;;;;;;;;26.50;23.50;;;;;6.45;65.26;100004.84;2097563;28;45317;-63
2022/12/09 04:20:15;;;;;;;;;33.50;29.50;;;;;6.46;65.16;100010.97;2094327;28;46366;-66
2022/12/09 04:21:15;;;;;;;;;28.75;24.50;;;;;6.45;65.00;100004.84;2096474;28;45973;-66
2022/12/09 04:22:15;;;;;;;;;33.25;31.25;;;;;6.45;64.94;100003.97;2093904;28;46649;-66
2022/12/09 04:23:16;;;;;;;;;27.50;26.25;;;;;6.46;64.85;99997.81;2096464;28;45689;-64
2022/12/09 04:24:16;;;;;;;;;38.00;34.00;;;;;6.47;65.05;100000.41;2097084;28;45138;-66
2022/12/09 04:25:16;;;;;;;;;30.50;27.50;;;;;6.48;65.20;100006.59;2094233;28;46564;-65
2022/12/09 04:26:20;;;;;;;;;31.25;29.50;;;;;6.48;64.92;99996.03;2093429;28;45786;-66
2022/12/09 04:27:20;;;;;;;;;34.20;28.00;;;;;6.46;64.75;99992.53;2093571;28;46831;-65
2022/12/09 04:28:20;;;;;;;;;30.25;28.75;;;;;6.45;65.04;99993.44;2094633;28;45660;-66
2022/12/09 04:29:21;;;;;;;;;31.50;30.25;;;;;6.46;64.93;99992.53;2096234;28;46538;-65
2022/12/09 04:30:21;;;;;;;;;33.00;28.25;;;;;6.46;64.90;99995.16;2093497;28;46497;-65
2022/12/09 04:31:21;;;;;;;;;32.00;32.00;;;;;6.46;64.95;99990.75;2093190;28;46637;-65
2022/12/09 04:32:22;;;;;;;;;36.75;33.50;;;;;6.46;64.97;99987.25;2092785;28;46403;-64
2022/12/09 04:33:22;;;;;;;;;32.00;30.50;;;;;6.46;64.94;99990.75;2096071;28;46237;-66
2022/12/09 04:34:22;;;;;;;;;35.25;29.00;;;;;6.45;64.92;99994.31;2093493;28;46858;-67
2022/12/09 04:35:22;;;;;;;;;37.25;34.25;;;;;6.46;65.11;99992.53;2096207;28;46596;-66
2022/12/09 04:36:23;;;;;;;;;31.75;29.75;;;;;6.45;64.86;99996.94;2096452;28;46333;-66
2022/12/09 04:37:23;;;;;;;;;26.00;26.00;;;;;6.46;64.66;99995.16;2095610;28;46315;-66
2022/12/09 04:38:23;;;;;;;;;34.00;27.25;;;;;6.45;64.66;99994.31;2094443;28;47442;-66
2022/12/09 04:39:24;;;;;;;;;35.75;28.25;;;;;6.46;64.47;100000.44;2095951;28;46492;-62
2022/12/09 04:40:24;;;;;;;;;23.75;23.00;;;;;6.46;64.96;100001.31;2094613;28;46672;-65
2022/12/09 04:41:25;;;;;;;;;34.00;32.00;;;;;6.46;64.72;99995.16;2094535;28;46234;-63
2022/12/09 04:42:27;;;;;;;;;32.75;28.25;;;;;6.46;64.58;99993.41;2095323;28;47141;-65
2022/12/09 04:43:28;;;;;;;;;29.20;27.60;;;;;6.46;64.41;99998.66;2094539;28;47853;-66
2022/12/09 04:44:28;;;;;;;;;28.00;28.00;;;;;6.45;64.46;99991.66;2094303;28;46890;-64
2022/12/09 04:45:29;;;;;;;;;28.50;28.50;;;;;6.44;64.61;99992.56;2087217;28;46291;-62
2022/12/09 04:46:29;;;;;;;;;26.25;25.25;;;;;6.42;64.36;99998.75;2085287;28;46533;-66
2022/12/09 04:47:32;;;;;;;;;31.75;29.75;;;;;6.41;64.59;99992.63;2094116;28;46488;-64
2022/12/09 04:48:33;;;;;;;;;25.80;23.60;;;;;6.39;64.53;99997.06;2093874;28;46714;-64
2022/12/09 04:49:33;;;;;;;;;31.25;29.50;;;;;6.39;64.56;100001.44;2087047;28;46308;-63
2022/12/09 04:50:33;;;;;;;;;28.50;23.75;;;;;6.39;64.91;99997.06;2089044;28;46217;-64